createdAt,value
2023-04-22T00:02:29.613Z,97.40
2023-04-22T00:05:02.043Z,97.40
2023-04-22T00:07:33.406Z,97.40
2023-04-22T00:10:03.103Z,97.40
2023-04-22T00:12:36.705Z,97.40
2023-04-22T00:15:11.193Z,97.40
2023-04-22T00:17:42.789Z,97.40
2023-04-22T00:20:13.394Z,97.40
2023-04-22T00:22:46.921Z,97.40
2023-04-22T00:25:19.452Z,97.40
2023-04-22T00:28:11.648Z,97.40
2023-04-22T00:30:41.722Z,97.40
2023-04-22T00:33:14.665Z,97.40
2023-04-22T00:35:47.915Z,97.40
2023-04-22T00:38:19.355Z,97.40
2023-04-22T00:40:49.248Z,97.40
2023-04-22T00:43:19.794Z,97.40
2023-04-22T00:45:51.688Z,97.40
2023-04-22T00:48:28.680Z,97.40
2023-04-22T00:50:59.673Z,97.40
2023-04-22T00:53:35.020Z,97.40
2023-04-22T00:56:12.496Z,97.40
2023-04-22T00:58:44.196Z,97.40
2023-04-22T01:01:16.666Z,97.40
2023-04-22T01:03:45.886Z,97.40
2023-04-22T01:06:15.327Z,97.40
2023-04-22T01:08:47.940Z,97.40
2023-04-22T01:11:16.916Z,97.40
2023-04-22T01:13:46.483Z,97.40
2023-04-22T01:16:18.418Z,97.40
2023-04-22T01:18:47.036Z,97.40
2023-04-22T01:21:17.201Z,97.40
2023-04-22T01:23:48.089Z,97.40
2023-04-22T01:26:21.949Z,97.40
2023-04-22T01:31:39.535Z,97.40
2023-04-22T01:34:10.859Z,97.40
2023-04-22T01:36:39.816Z,97.40
2023-04-22T01:39:15.128Z,97.40
2023-04-22T01:41:45.757Z,97.40
2023-04-22T01:44:16.819Z,97.40
2023-04-22T01:46:48.382Z,97.40
2023-04-22T01:49:17.822Z,97.40
2023-04-22T01:51:46.738Z,97.40
2023-04-22T01:54:18.964Z,97.40
2023-04-22T01:59:53.527Z,97.40
2023-04-22T02:02:24.715Z,97.40
2023-04-22T02:04:56.076Z,97.40
2023-04-22T02:07:25.015Z,97.40
2023-04-22T02:09:55.157Z,97.40
2023-04-22T02:12:24.170Z,97.40
2023-04-22T02:14:55.758Z,97.40
2023-04-22T02:17:28.616Z,97.40
2023-04-22T02:19:58.018Z,97.40
2023-04-22T02:22:30.003Z,97.40
2023-04-22T02:25:07.444Z,97.40
2023-04-22T02:27:36.897Z,97.40
2023-04-22T02:30:08.000Z,97.40
2023-04-22T02:32:38.977Z,97.40
2023-04-22T02:35:11.233Z,97.40
2023-04-22T02:37:49.732Z,97.40
2023-04-22T02:40:21.112Z,97.40
2023-04-22T02:42:50.256Z,97.40
2023-04-22T02:45:19.221Z,97.40
2023-04-22T02:47:48.590Z,97.40
2023-04-22T02:50:17.360Z,97.40
2023-04-22T02:52:46.294Z,97.40
2023-04-22T02:55:16.397Z,97.40
2023-04-22T02:57:49.118Z,97.40
2023-04-22T03:00:19.230Z,97.40
2023-04-22T03:02:51.642Z,97.40
2023-04-22T03:05:26.278Z,97.40
2023-04-22T03:07:56.719Z,97.40
2023-04-22T03:10:32.958Z,97.40
2023-04-22T03:13:05.444Z,97.40
2023-04-22T03:15:34.659Z,97.40
2023-04-22T03:18:03.427Z,97.40
2023-04-22T03:20:32.454Z,97.40
2023-04-22T03:23:01.399Z,97.40
2023-04-22T03:25:30.917Z,97.40
2023-04-22T03:28:04.217Z,97.40
2023-04-22T03:30:32.996Z,97.40
2023-04-22T03:33:01.838Z,97.40
2023-04-22T03:35:39.162Z,97.40
2023-04-22T03:38:08.426Z,97.40
2023-04-22T03:40:39.966Z,97.40
2023-04-22T03:43:23.236Z,97.40
2023-04-22T03:46:10.236Z,97.40
2023-04-22T03:48:45.697Z,97.40
2023-04-22T03:51:24.408Z,97.40
2023-04-22T03:53:54.038Z,97.40
2023-04-22T03:56:26.403Z,97.40
2023-04-22T03:59:00.491Z,97.40
2023-04-22T04:01:34.209Z,97.40
2023-04-22T04:04:11.022Z,97.40
2023-04-22T04:06:54.568Z,97.40
2023-04-22T04:09:24.997Z,97.40
2023-04-22T04:11:54.601Z,97.40
2023-04-22T04:14:24.794Z,97.40
2023-04-22T04:16:54.047Z,97.40
2023-04-22T04:19:29.133Z,97.40
2023-04-22T04:22:01.952Z,97.40
2023-04-22T04:24:36.966Z,97.40
2023-04-22T04:27:14.664Z,97.40
2023-04-22T04:29:52.854Z,97.40
2023-04-22T04:32:40.429Z,97.40
2023-04-22T04:35:14.732Z,97.40
2023-04-22T04:37:47.665Z,97.40
2023-04-22T04:40:17.839Z,97.40
2023-04-22T04:43:20.957Z,97.40
2023-04-22T04:46:00.615Z,97.40
2023-04-22T04:48:43.708Z,97.40
2023-04-22T04:51:20.067Z,97.40
2023-04-22T04:54:00.445Z,97.40
2023-04-22T04:56:38.913Z,97.40
2023-04-22T04:59:22.696Z,97.40
2023-04-22T05:01:54.834Z,97.40
2023-04-22T05:04:27.176Z,97.40
2023-04-22T05:06:58.213Z,97.40
2023-04-22T05:09:29.481Z,97.40
2023-04-22T05:12:03.072Z,97.40
2023-04-22T05:14:37.457Z,97.40
2023-04-22T05:17:08.380Z,97.40
2023-04-22T05:19:43.630Z,97.40
2023-04-22T05:22:16.235Z,97.40
2023-04-22T05:24:59.032Z,97.40
2023-04-22T05:27:30.870Z,97.40
2023-04-22T05:30:04.201Z,97.40
2023-04-22T05:32:38.804Z,97.40
2023-04-22T05:35:11.911Z,97.40
2023-04-22T05:37:42.206Z,97.40
2023-04-22T05:40:12.897Z,97.40
2023-04-22T05:42:44.042Z,97.40
2023-04-22T05:45:16.103Z,97.40
2023-04-22T05:47:47.233Z,97.40
2023-04-22T05:50:17.580Z,97.40
2023-04-22T05:53:10.603Z,97.40
2023-04-22T05:55:41.103Z,97.40
2023-04-22T05:58:12.297Z,97.40
2023-04-22T06:00:55.101Z,97.40
2023-04-22T06:03:45.428Z,97.40
2023-04-22T06:06:15.459Z,97.40
2023-04-22T06:08:44.659Z,97.40
2023-04-22T06:11:34.659Z,97.40
2023-04-22T06:14:06.617Z,97.40
2023-04-22T06:16:37.057Z,97.40
2023-04-22T06:19:10.541Z,97.40
2023-04-22T06:21:40.880Z,97.40
2023-04-22T06:24:11.839Z,97.40
2023-04-22T06:26:41.611Z,97.40
2023-04-22T06:29:11.608Z,97.40
2023-04-22T06:31:42.709Z,97.40
2023-04-22T06:34:19.910Z,97.40
2023-04-22T06:36:54.901Z,97.40
2023-04-22T06:39:26.364Z,97.40
2023-04-22T06:42:09.538Z,97.40
2023-04-22T06:45:14.006Z,97.40
2023-04-22T06:48:04.248Z,97.40
2023-04-22T06:50:49.251Z,97.40
2023-04-22T06:53:19.303Z,97.40
2023-04-22T06:55:50.212Z,97.40
2023-04-22T06:58:19.075Z,97.40
2023-04-22T07:00:49.989Z,97.40
2023-04-22T07:03:19.156Z,97.40
2023-04-22T07:06:02.265Z,97.40
2023-04-22T07:08:37.020Z,97.40
2023-04-22T07:11:06.373Z,97.40
2023-04-22T07:13:43.122Z,97.40
2023-04-22T07:16:13.479Z,97.40
2023-04-22T07:18:43.642Z,97.40
2023-04-22T07:21:13.999Z,97.40
2023-04-22T07:23:43.114Z,97.40
2023-04-22T07:26:11.876Z,97.40
2023-04-22T07:28:41.942Z,97.40
2023-04-22T07:31:13.674Z,97.40
2023-04-22T07:33:44.023Z,97.40
2023-04-22T07:36:14.490Z,97.40
2023-04-22T07:38:45.376Z,97.40
2023-04-22T07:41:14.722Z,97.40
2023-04-22T07:43:43.522Z,97.40
2023-04-22T07:46:14.715Z,97.40
2023-04-22T07:48:43.533Z,97.40
2023-04-22T07:51:14.415Z,97.40
2023-04-22T07:53:43.235Z,97.40
2023-04-22T07:56:14.369Z,95.50
2023-04-22T07:58:44.443Z,95.40
2023-04-22T08:01:16.288Z,95.10
2023-04-22T08:03:48.454Z,91.70
2023-04-22T08:06:19.735Z,92.40
2023-04-22T08:08:48.828Z,90.90
2023-04-22T08:11:18.124Z,88.80
2023-04-22T08:13:50.145Z,80.40
2023-04-22T08:16:19.102Z,80.80
2023-04-22T08:18:51.361Z,75.80
2023-04-22T08:21:21.932Z,77.80
2023-04-22T08:23:50.553Z,78.40
2023-04-22T08:26:19.418Z,77.30
2023-04-22T08:28:49.057Z,78.40
2023-04-22T08:31:18.584Z,80.00
2023-04-22T08:33:47.624Z,76.70
2023-04-22T08:36:17.125Z,77.30
2023-04-22T08:38:49.505Z,73.30
2023-04-22T08:41:25.476Z,75.00
2023-04-22T08:43:56.337Z,76.90
2023-04-22T08:46:28.762Z,74.60
2023-04-22T08:48:59.550Z,75.20
2023-04-22T08:51:29.282Z,77.10
2023-04-22T08:54:02.767Z,75.20
2023-04-22T08:56:34.444Z,74.60
2023-04-22T08:59:03.847Z,74.50
2023-04-22T09:01:34.845Z,76.10
2023-04-22T09:04:07.022Z,74.60
2023-04-22T09:06:41.821Z,72.20
2023-04-22T09:09:14.769Z,68.10
2023-04-22T09:11:45.900Z,62.00
2023-04-22T09:14:15.277Z,63.10
2023-04-22T09:16:50.167Z,64.00
2023-04-22T09:19:20.375Z,58.10
2023-04-22T09:21:53.683Z,59.20
2023-04-22T09:24:26.775Z,60.30
2023-04-22T09:26:58.355Z,56.30
2023-04-22T09:29:32.580Z,54.00
2023-04-22T09:32:01.873Z,55.40
2023-04-22T09:34:31.123Z,55.40
2023-04-22T09:37:00.338Z,53.90
2023-04-22T09:39:32.344Z,55.40
2023-04-22T09:42:06.035Z,48.70
2023-04-22T09:44:37.069Z,52.20
2023-04-22T09:47:06.748Z,50.80
2023-04-22T09:49:39.746Z,51.00
2023-04-22T09:52:11.689Z,49.00
2023-04-22T09:54:52.819Z,48.40
2023-04-22T09:57:22.450Z,47.20
2023-04-22T09:59:54.400Z,49.00
2023-04-22T10:02:32.435Z,51.00
2023-04-22T10:05:10.884Z,50.20
2023-04-22T10:07:40.467Z,47.30
2023-04-22T10:10:12.117Z,40.10
2023-04-22T10:12:44.100Z,41.80
2023-04-22T10:15:13.871Z,44.60
2023-04-22T10:17:44.469Z,37.90
2023-04-22T10:20:21.088Z,42.40
2023-04-22T10:22:56.998Z,34.50
2023-04-22T10:25:28.966Z,33.10
2023-04-22T10:28:05.359Z,36.50
2023-04-22T10:30:40.724Z,37.10
2023-04-22T10:33:43.239Z,31.90
2023-04-22T10:36:20.186Z,36.20
2023-04-22T10:39:22.193Z,36.50
2023-04-22T10:42:10.245Z,35.30
2023-04-22T10:44:51.799Z,34.10
2023-04-22T10:47:29.407Z,33.30
2023-04-22T10:50:16.710Z,30.60
2023-04-22T10:52:52.913Z,34.20
2023-04-22T10:55:24.359Z,31.00
2023-04-22T10:57:55.333Z,32.40
2023-04-22T11:00:53.370Z,33.60
2023-04-22T11:03:31.216Z,30.40
2023-04-22T11:06:27.729Z,30.70
2023-04-22T11:09:13.746Z,29.80
2023-04-22T11:11:42.534Z,29.60
2023-04-22T11:14:14.247Z,30.70
2023-04-22T11:16:48.804Z,27.60
2023-04-22T11:19:20.219Z,28.20
2023-04-22T11:21:51.170Z,30.10
2023-04-22T11:24:21.403Z,30.60
2023-04-22T11:26:57.209Z,27.90
2023-04-22T11:29:27.638Z,29.50
2023-04-22T11:31:58.929Z,28.90
2023-04-22T11:34:28.057Z,28.60
2023-04-22T11:36:56.897Z,26.90
2023-04-22T11:39:37.632Z,27.50
2023-04-22T11:42:13.350Z,28.10
2023-04-22T11:44:47.116Z,26.10
2023-04-22T11:47:17.080Z,24.60
2023-04-22T11:49:59.378Z,24.40
2023-04-22T11:52:50.602Z,27.10
2023-04-22T11:55:26.749Z,28.20
2023-04-22T11:58:01.515Z,26.60
2023-04-22T12:00:34.637Z,26.60
2023-04-22T12:03:05.474Z,23.40
2023-04-22T12:05:38.334Z,23.00
2023-04-22T12:08:10.729Z,24.00
2023-04-22T12:10:45.670Z,24.90
2023-04-22T12:13:21.780Z,25.10
2023-04-22T12:15:57.119Z,25.20
2023-04-22T12:18:39.264Z,25.00
2023-04-22T12:21:12.105Z,24.80
2023-04-22T12:23:44.805Z,25.60
2023-04-22T12:26:15.430Z,27.10
2023-04-22T12:28:45.134Z,27.90
2023-04-22T12:31:16.979Z,28.20
2023-04-22T12:33:47.456Z,29.80
2023-04-22T12:36:17.723Z,28.10
2023-04-22T12:38:46.761Z,30.20
2023-04-22T12:41:15.945Z,29.80
2023-04-22T12:43:47.297Z,30.70
2023-04-22T12:46:18.502Z,31.50
2023-04-22T12:48:48.311Z,32.20
2023-04-22T12:51:25.120Z,32.50
2023-04-22T12:53:53.731Z,33.90
2023-04-22T12:56:24.824Z,35.00
2023-04-22T12:58:54.826Z,36.00
2023-04-22T13:01:25.105Z,36.30
2023-04-22T13:03:55.249Z,36.60
2023-04-22T13:06:26.167Z,37.90
2023-04-22T13:08:54.999Z,38.00
2023-04-22T13:11:25.512Z,37.70
2023-04-22T13:13:56.295Z,38.30
2023-04-22T13:16:26.393Z,39.40
2023-04-22T13:18:55.233Z,40.90
2023-04-22T13:21:24.116Z,40.10
2023-04-22T13:23:53.663Z,41.10
2023-04-22T13:26:22.658Z,42.40
2023-04-22T13:28:52.420Z,43.00
2023-04-22T13:31:21.470Z,43.50
2023-04-22T13:33:51.608Z,43.30
2023-04-22T13:36:20.512Z,42.70
2023-04-22T13:38:52.030Z,43.80
2023-04-22T13:41:20.833Z,44.30
2023-04-22T13:43:54.493Z,42.60
2023-04-22T13:46:23.818Z,42.00
2023-04-22T13:48:56.100Z,44.00
2023-04-22T13:51:25.538Z,45.00
2023-04-22T13:53:57.721Z,46.20
2023-04-22T13:56:29.187Z,48.40
2023-04-22T13:58:58.337Z,48.40
2023-04-22T14:01:27.627Z,49.40
2023-04-22T14:03:58.423Z,50.70
2023-04-22T14:06:28.144Z,51.40
2023-04-22T14:08:59.687Z,54.30
2023-04-22T14:11:29.949Z,54.80
2023-04-22T14:14:00.772Z,55.50
2023-04-22T14:16:30.695Z,56.90
2023-04-22T14:19:04.310Z,58.30
2023-04-22T14:21:33.865Z,60.10
2023-04-22T14:24:02.392Z,62.00
2023-04-22T14:26:33.386Z,62.70
2023-04-22T14:29:02.595Z,63.30
2023-04-22T14:31:35.019Z,65.90
2023-04-22T14:34:06.644Z,65.50
2023-04-22T14:36:35.923Z,66.30
2023-04-22T14:39:07.901Z,66.60
2023-04-22T14:41:40.613Z,67.20
2023-04-22T14:44:09.845Z,68.70
2023-04-22T14:46:42.940Z,68.10
2023-04-22T14:49:14.413Z,67.90
2023-04-22T14:51:46.990Z,66.10
2023-04-22T14:54:16.166Z,65.70
2023-04-22T14:56:52.708Z,67.00
2023-04-22T14:59:25.336Z,66.80
2023-04-22T15:01:56.415Z,66.40
2023-04-22T15:04:31.131Z,66.30
2023-04-22T15:07:01.624Z,65.90
2023-04-22T15:09:30.609Z,65.90
2023-04-22T15:12:04.994Z,66.60
2023-04-22T15:14:35.820Z,66.60
2023-04-22T15:17:05.958Z,66.10
2023-04-22T15:19:38.027Z,67.00
2023-04-22T15:22:08.850Z,68.50
2023-04-22T15:24:37.769Z,67.70
2023-04-22T15:27:06.163Z,67.90
2023-04-22T15:29:34.503Z,67.70
2023-04-22T15:32:03.698Z,62.00
2023-04-22T15:34:32.437Z,62.90
2023-04-22T15:37:03.086Z,62.20
2023-04-22T15:39:32.101Z,59.50
2023-04-22T15:42:01.634Z,61.00
2023-04-22T15:44:31.648Z,59.50
2023-04-22T15:47:02.102Z,62.00
2023-04-22T15:49:33.078Z,61.40
2023-04-22T15:52:04.864Z,61.00
2023-04-22T15:54:33.477Z,61.60
2023-04-22T15:57:02.777Z,61.60
2023-04-22T15:59:32.952Z,61.80
2023-04-22T16:02:02.839Z,61.60
2023-04-22T16:04:32.807Z,62.00
2023-04-22T16:07:06.038Z,65.70
2023-04-22T16:09:34.740Z,67.20
2023-04-22T16:12:03.038Z,65.70
2023-04-22T16:14:32.193Z,67.00
2023-04-22T16:17:02.702Z,65.70
2023-04-22T16:19:32.243Z,64.60
2023-04-22T16:22:01.231Z,64.00
2023-04-22T16:24:30.794Z,62.70
2023-04-22T16:26:59.536Z,62.70
2023-04-22T16:29:31.263Z,62.20
2023-04-22T16:32:00.617Z,60.10
2023-04-22T16:34:33.351Z,61.60
2023-04-22T16:37:02.776Z,64.00
2023-04-22T16:39:35.551Z,62.70
2023-04-22T16:42:03.967Z,63.30
2023-04-22T16:44:32.427Z,63.30
2023-04-22T16:47:02.714Z,63.80
2023-04-22T16:49:33.184Z,63.80
2023-04-22T16:52:01.487Z,64.80
2023-04-22T16:54:32.380Z,65.10
2023-04-22T16:57:01.712Z,66.30
2023-04-22T16:59:30.345Z,67.90
2023-04-22T17:02:01.259Z,67.70
2023-04-22T17:04:31.029Z,68.70
2023-04-22T17:07:00.130Z,70.50
2023-04-22T17:09:35.608Z,69.40
2023-04-22T17:12:07.477Z,69.40
2023-04-22T17:14:37.590Z,70.50
2023-04-22T17:17:06.926Z,70.50
2023-04-22T17:19:36.697Z,70.20
2023-04-22T17:24:49.583Z,72.40
2023-04-22T17:27:18.589Z,73.70
2023-04-22T17:29:49.057Z,73.90
2023-04-22T17:32:17.442Z,74.30
2023-04-22T17:34:46.127Z,74.60
2023-04-22T17:37:14.573Z,75.20
2023-04-22T17:39:43.955Z,77.80
2023-04-22T17:42:16.202Z,77.80
2023-04-22T17:44:45.171Z,77.30
2023-04-22T17:47:13.886Z,77.10
2023-04-22T17:49:43.046Z,77.60
2023-04-22T17:52:11.696Z,77.80
2023-04-22T17:54:43.535Z,78.70
2023-04-22T17:57:23.606Z,79.70
2023-04-22T17:59:53.930Z,80.00
2023-04-22T18:02:23.449Z,80.20
2023-04-22T18:04:53.482Z,80.80
2023-04-22T18:07:22.869Z,82.30
2023-04-22T18:09:51.587Z,84.10
2023-04-22T18:12:29.211Z,82.80
2023-04-22T18:15:03.541Z,81.70
2023-04-22T18:17:34.711Z,81.00
2023-04-22T18:20:16.793Z,81.40
2023-04-22T18:22:52.575Z,83.20
2023-04-22T18:25:22.005Z,86.60
2023-04-22T18:27:56.628Z,86.90
2023-04-22T18:30:30.276Z,89.70
2023-04-22T18:33:07.423Z,89.20
2023-04-22T18:35:37.245Z,89.70
2023-04-22T18:38:06.516Z,89.90
2023-04-22T18:40:41.343Z,90.90
2023-04-22T18:43:15.336Z,91.50
2023-04-22T18:45:43.840Z,91.20
2023-04-22T18:48:15.423Z,92.10
2023-04-22T18:50:44.311Z,92.30
2023-04-22T18:53:12.812Z,92.30
2023-04-22T18:55:43.029Z,92.60
2023-04-22T18:58:13.508Z,92.20
2023-04-22T19:00:42.842Z,92.30
2023-04-22T19:03:13.869Z,91.60
2023-04-22T19:05:43.455Z,91.30
2023-04-22T19:08:11.905Z,90.90
2023-04-22T19:10:41.451Z,90.70
2023-04-22T19:13:22.316Z,90.30
2023-04-22T19:16:00.899Z,90.40
2023-04-22T19:18:33.467Z,90.20
2023-04-22T19:21:03.287Z,90.50
2023-04-22T19:23:33.890Z,91.50
2023-04-22T19:26:03.041Z,92.10
2023-04-22T19:28:33.876Z,92.30
2023-04-22T19:31:04.828Z,93.00
2023-04-22T19:33:35.641Z,93.10
2023-04-22T19:36:04.517Z,93.30
2023-04-22T19:38:33.400Z,93.80
2023-04-22T19:41:01.962Z,95.00
2023-04-22T19:43:32.216Z,95.40
2023-04-22T19:46:01.136Z,96.00
2023-04-22T19:48:33.936Z,96.80
2023-04-22T19:51:05.146Z,97.40
2023-04-22T19:53:37.448Z,97.40
2023-04-22T19:56:08.729Z,97.40
2023-04-22T19:58:37.415Z,97.40
2023-04-22T20:01:06.935Z,97.40
2023-04-22T20:03:39.889Z,97.40
2023-04-22T20:06:13.533Z,97.40
2023-04-22T20:08:44.129Z,97.40
2023-04-22T20:11:13.245Z,97.40
2023-04-22T20:13:42.870Z,97.40
2023-04-22T20:16:15.547Z,97.40
2023-04-22T20:18:49.152Z,97.40
2023-04-22T20:21:20.633Z,97.40
2023-04-22T20:23:52.791Z,97.40
2023-04-22T20:26:24.536Z,97.40
2023-04-22T20:28:56.840Z,97.40
2023-04-22T20:31:27.542Z,97.40
2023-04-22T20:33:58.245Z,97.40
2023-04-22T20:36:28.454Z,97.40
2023-04-22T20:39:00.589Z,97.40
2023-04-22T20:41:33.107Z,97.40
2023-04-22T20:44:02.946Z,97.40
2023-04-22T20:46:33.532Z,97.40
2023-04-22T20:49:03.240Z,97.40
2023-04-22T20:51:32.192Z,97.40
2023-04-22T20:54:01.004Z,97.40
2023-04-22T20:56:29.604Z,97.40
2023-04-22T20:58:58.163Z,97.40
2023-04-22T21:01:30.050Z,97.40
2023-04-22T21:03:59.996Z,97.40
2023-04-22T21:06:36.224Z,97.40
2023-04-22T21:09:10.917Z,97.40
2023-04-22T21:11:41.176Z,97.40
2023-04-22T21:14:12.345Z,97.40
2023-04-22T21:16:47.575Z,97.40
2023-04-22T21:19:20.707Z,97.40
2023-04-22T21:21:53.822Z,97.40
2023-04-22T21:24:25.548Z,97.40
2023-04-22T21:26:55.804Z,97.40
2023-04-22T21:29:30.840Z,97.40
2023-04-22T21:32:09.498Z,97.40
2023-04-22T21:34:39.813Z,97.40
2023-04-22T21:37:11.682Z,97.40
2023-04-22T21:39:41.153Z,97.40
2023-04-22T21:42:10.927Z,97.40
2023-04-22T21:44:40.694Z,97.40
2023-04-22T21:47:12.660Z,97.40
2023-04-22T21:49:41.347Z,97.40
2023-04-22T21:52:13.060Z,97.40
2023-04-22T21:54:44.144Z,97.40
2023-04-22T21:57:13.902Z,97.40
2023-04-22T21:59:43.688Z,97.40
2023-04-22T22:02:12.375Z,97.40
2023-04-22T22:04:44.148Z,97.40
2023-04-22T22:07:21.476Z,97.40
2023-04-22T22:09:51.467Z,97.40
2023-04-22T22:12:25.084Z,97.40
2023-04-22T22:14:55.952Z,97.40
2023-04-22T22:17:26.398Z,97.40
2023-04-22T22:19:56.313Z,97.40
2023-04-22T22:22:26.727Z,97.40
2023-04-22T22:24:55.435Z,97.40
2023-04-22T22:27:24.225Z,97.40
2023-04-22T22:29:55.254Z,97.40
2023-04-22T22:32:25.688Z,97.40
2023-04-22T22:34:55.188Z,97.40
2023-04-22T22:37:28.199Z,97.40
2023-04-22T22:39:58.531Z,97.40
2023-04-22T22:42:28.717Z,97.40
2023-04-22T22:44:59.421Z,97.40
2023-04-22T22:47:36.580Z,97.40
2023-04-22T22:50:07.281Z,97.40
2023-04-22T22:52:45.561Z,97.40
2023-04-22T22:55:14.333Z,97.40
2023-04-22T22:57:43.181Z,97.40
2023-04-22T23:00:15.068Z,97.40
2023-04-22T23:02:51.551Z,97.40
2023-04-22T23:05:22.426Z,97.40
2023-04-22T23:07:53.129Z,97.40
2023-04-22T23:10:22.800Z,97.40
2023-04-22T23:12:59.529Z,97.40
2023-04-22T23:15:28.259Z,97.40
2023-04-22T23:17:58.331Z,97.40
2023-04-22T23:20:30.668Z,97.40
2023-04-22T23:23:03.924Z,97.40
2023-04-22T23:25:37.177Z,97.40
2023-04-22T23:28:08.748Z,97.40
2023-04-22T23:30:39.415Z,97.40
2023-04-22T23:33:15.333Z,97.40
2023-04-22T23:35:50.914Z,97.40
2023-04-22T23:38:21.516Z,97.40
2023-04-22T23:40:51.708Z,97.40
2023-04-22T23:43:21.062Z,97.40
2023-04-22T23:45:53.656Z,97.40
2023-04-22T23:48:23.830Z,97.40
2023-04-22T23:50:52.351Z,97.40
2023-04-22T23:53:25.344Z,97.40
2023-04-22T23:55:55.197Z,97.40
2023-04-22T23:58:24.742Z,97.40
